Time;durP1;ratioP1;P1;durP2;ratioP2;P2;SDS_P1;SDS_P2;PMS_P1;PMS_P2;Temp;Humidity;BMP_temperature;BMP_pressure;BME280_temperature;BME280_humidity;BME280_pressure;Samples;Min_cycle;Max_cycle;Signal;HPM_P1;HPM_P2
2022/10/28 00:00:06;;;;;;;11.33;8.43;;;14.60;99.90;;;;;;5113561;28;20432;-45
2022/10/28 00:02:33;;;;;;;8.13;7.33;;;15.30;99.90;;;;;;5113901;28;20431;-45
2022/10/28 00:05:00;;;;;;;10.97;9.27;;;15.10;99.90;;;;;;5113955;28;20447;-46
2022/10/28 00:07:29;;;;;;;9.77;7.97;;;15.20;99.90;;;;;;5114225;28;20465;-45
2022/10/28 00:09:55;;;;;;;9.47;8.23;;;14.80;99.90;;;;;;5114021;28;20465;-45
2022/10/28 00:12:22;;;;;;;8.87;7.70;;;15.70;99.90;;;;;;5113972;28;20478;-45
2022/10/28 00:14:49;;;;;;;10.47;7.47;;;15.20;99.90;;;;;;5113761;28;20403;-45
2022/10/28 00:17:15;;;;;;;10.60;8.03;;;15.20;99.90;;;;;;5095940;28;20483;-44
2022/10/28 00:19:42;;;;;;;10.87;7.40;;;15.40;99.90;;;;;;5095380;28;20471;-44
2022/10/28 00:22:08;;;;;;;11.60;7.37;;;15.40;99.90;;;;;;5113572;28;20428;-46
2022/10/28 00:24:36;;;;;;;12.47;7.70;;;15.60;99.90;;;;;;5114113;28;20951;-44
2022/10/28 00:27:03;;;;;;;8.60;7.70;;;15.30;99.90;;;;;;5113856;28;20471;-44
2022/10/28 00:29:31;;;;;;;11.03;8.90;;;15.30;99.90;;;;;;5095398;28;20556;-43
2022/10/28 00:31:57;;;;;;;8.20;7.30;;;15.30;99.90;;;;;;5113688;28;20452;-45
2022/10/28 00:34:24;;;;;;;11.67;8.20;;;15.40;99.90;;;;;;5113735;28;20881;-44
2022/10/28 00:36:50;;;;;;;9.80;7.57;;;15.20;99.90;;;;;;5114056;28;21004;-46
2022/10/28 00:39:19;;;;;;;8.20;7.33;;;15.10;99.90;;;;;;5113480;28;21067;-45
2022/10/28 00:41:49;;;;;;;12.20;6.90;;;15.20;99.90;;;;;;5113904;28;20432;-45
2022/10/28 00:44:55;;;;;;;11.73;7.17;;;14.80;99.90;;;;;;5113295;28;20441;-44
2022/10/28 00:47:32;;;;;;;9.80;7.60;;;15.30;99.90;;;;;;5113010;28;20971;-45
2022/10/28 00:50:09;;;;;;;10.60;8.00;;;15.10;99.90;;;;;;5112568;28;20481;-45
2022/10/28 00:52:36;;;;;;;10.60;8.40;;;15.40;99.90;;;;;;5112835;28;20432;-45
2022/10/28 00:55:03;;;;;;;10.10;7.50;;;15.30;99.90;;;;;;5112934;28;20431;-47
2022/10/28 00:57:35;;;;;;;7.83;7.13;;;15.30;99.90;;;;;;5113072;28;20803;-43
2022/10/28 01:00:05;;;;;;;7.60;6.73;;;15.30;99.90;;;;;;5113085;28;20462;-47
2022/10/28 01:02:34;;;;;;;10.23;7.50;;;15.30;99.90;;;;;;5112595;28;20428;-45
2022/10/28 01:05:00;;;;;;;10.33;7.90;;;15.50;99.90;;;;;;5112646;28;20913;-44
2022/10/28 01:07:27;;;;;;;8.03;7.10;;;14.90;99.90;;;;;;5112605;28;20462;-44
2022/10/28 01:09:54;;;;;;;10.07;7.70;;;15.20;99.90;;;;;;5112103;28;20831;-44
2022/10/28 01:12:29;;;;;;;8.80;7.90;;;15.20;99.90;;;;;;5112731;28;20521;-45
2022/10/28 01:15:04;;;;;;;9.50;7.57;;;15.60;99.90;;;;;;5112740;28;20439;-45
2022/10/28 01:17:51;;;;;;;9.43;7.20;;;15.10;99.90;;;;;;5112684;28;20788;-43
2022/10/28 01:20:42;;;;;;;9.37;7.13;;;15.60;99.90;;;;;;5112372;28;20429;-46
2022/10/28 01:23:17;;;;;;;9.27;7.33;;;15.30;99.90;;;;;;5112862;28;20911;-44
2022/10/28 01:26:20;;;;;;;8.90;7.13;;;15.20;99.90;;;;;;5112848;28;20450;-45
2022/10/28 01:29:06;;;;;;;9.30;7.60;;;15.30;99.90;;;;;;5110009;28;20451;-46
2022/10/28 01:31:41;;;;;;;10.47;7.30;;;15.30;99.90;;;;;;5113238;28;20446;-45
2022/10/28 01:34:16;;;;;;;8.13;7.20;;;15.50;99.90;;;;;;5112868;28;20793;-45
2022/10/28 01:36:53;;;;;;;10.77;7.40;;;15.30;99.90;;;;;;5112508;28;20447;-45
2022/10/28 01:39:29;;;;;;;8.17;6.97;;;15.20;99.90;;;;;;5112241;28;20446;-46
2022/10/28 01:42:02;;;;;;;9.50;7.93;;;15.40;99.90;;;;;;5112947;28;20428;-44
2022/10/28 01:44:33;;;;;;;9.60;8.17;;;15.30;99.90;;;;;;5113795;28;20436;-45
2022/10/28 01:47:08;;;;;;;8.67;7.80;;;15.30;99.90;;;;;;5116952;28;20548;-45
2022/10/28 01:49:41;;;;;;;9.13;6.80;;;15.20;99.90;;;;;;5116593;28;20431;-47
2022/10/28 01:52:12;;;;;;;8.10;7.10;;;14.60;99.90;;;;;;5116605;28;20494;-43
2022/10/28 01:54:42;;;;;;;13.37;8.87;;;15.10;99.90;;;;;;5116489;28;20816;-45
2022/10/28 01:57:12;;;;;;;8.80;7.40;;;15.40;99.90;;;;;;5116448;28;20455;-45
2022/10/28 01:59:40;;;;;;;8.70;7.90;;;15.20;99.90;;;;;;5116055;28;20414;-46
2022/10/28 02:02:08;;;;;;;10.10;7.90;;;15.50;99.90;;;;;;5116637;28;20430;-45
2022/10/28 02:04:35;;;;;;;11.33;7.87;;;15.20;99.90;;;;;;5116282;28;20436;-46
2022/10/28 02:07:01;;;;;;;9.63;7.40;;;15.50;99.90;;;;;;5116442;28;20450;-46
2022/10/28 02:09:40;;;;;;;11.63;7.63;;;15.20;99.90;;;;;;5116145;28;20443;-44
2022/10/28 02:12:25;;;;;;;24.63;8.03;;;15.30;99.90;;;;;;5116439;28;20439;-45
2022/10/28 02:15:23;;;;;;;12.83;8.30;;;15.20;99.90;;;;;;5115462;28;20452;-45
2022/10/28 02:17:59;;;;;;;9.87;7.87;;;15.20;99.90;;;;;;5116385;28;20439;-46
2022/10/28 02:20:34;;;;;;;8.70;7.73;;;15.30;99.90;;;;;;5116327;28;20428;-45
2022/10/28 02:23:11;;;;;;;11.63;8.13;;;15.10;99.90;;;;;;5116518;28;20446;-45
2022/10/28 02:25:42;;;;;;;11.40;7.83;;;15.30;99.90;;;;;;5116240;28;20941;-44
2022/10/28 02:28:12;;;;;;;10.83;9.00;;;15.00;99.90;;;;;;5116045;28;20478;-46
2022/10/28 02:30:45;;;;;;;13.20;8.60;;;15.20;99.90;;;;;;5115967;28;20988;-44
2022/10/28 02:33:18;;;;;;;12.57;9.07;;;15.10;99.90;;;;;;5115985;28;20924;-45
2022/10/28 02:35:48;;;;;;;9.10;8.20;;;15.20;99.90;;;;;;5116123;28;20444;-45
2022/10/28 02:38:19;;;;;;;15.03;7.53;;;15.10;99.90;;;;;;5115790;28;20458;-44
2022/10/28 02:40:49;;;;;;;11.47;8.87;;;15.00;99.90;;;;;;5115454;28;20929;-45
2022/10/28 02:43:19;;;;;;;8.03;7.27;;;15.00;99.90;;;;;;5115798;28;20431;-45
2022/10/28 02:45:49;;;;;;;15.13;8.53;;;15.00;99.90;;;;;;5115350;28;20759;-44
2022/10/28 02:48:22;;;;;;;10.20;8.27;;;15.00;99.90;;;;;;5115269;28;20452;-47
2022/10/28 02:50:54;;;;;;;11.67;7.53;;;14.80;99.90;;;;;;5115017;28;20577;-45
2022/10/28 02:53:28;;;;;;;9.33;8.37;;;14.70;99.90;;;;;;5115270;28;20428;-45
2022/10/28 02:55:59;;;;;;;12.20;7.97;;;14.80;99.90;;;;;;5113584;28;20435;-45
2022/10/28 02:58:26;;;;;;;10.47;8.30;;;14.70;99.90;;;;;;5114527;28;20958;-49
2022/10/28 03:00:52;;;;;;;12.53;7.70;;;14.90;99.90;;;;;;5115212;28;20493;-45
2022/10/28 03:03:20;;;;;;;11.03;8.10;;;14.80;99.90;;;;;;5114894;28;20402;-45
2022/10/28 03:05:47;;;;;;;10.37;8.00;;;15.00;99.90;;;;;;5115080;28;20435;-45
2022/10/28 03:08:13;;;;;;;9.20;7.93;;;14.60;99.90;;;;;;5114628;28;20452;-44
2022/10/28 03:10:40;;;;;;;9.87;8.03;;;14.90;99.90;;;;;;5115093;28;21081;-45
2022/10/28 03:13:06;;;;;;;11.60;9.20;;;14.80;99.90;;;;;;5115035;28;20432;-45
2022/10/28 03:15:33;;;;;;;15.50;9.07;;;14.70;99.90;;;;;;5114863;28;20443;-44
2022/10/28 03:17:59;;;;;;;9.80;8.10;;;14.70;99.90;;;;;;5114366;28;20448;-44
2022/10/28 03:20:27;;;;;;;12.10;8.40;;;14.40;99.90;;;;;;5114059;28;20498;-44
2022/10/28 03:22:54;;;;;;;15.00;8.47;;;14.50;99.90;;;;;;5114296;28;20432;-44
2022/10/28 03:25:20;;;;;;;12.00;8.70;;;14.90;99.90;;;;;;5114279;28;20439;-46
2022/10/28 03:27:47;;;;;;;11.97;9.73;;;14.70;99.90;;;;;;5114067;28;20478;-45
2022/10/28 03:30:14;;;;;;;11.20;9.00;;;14.80;99.90;;;;;;5114141;28;20467;-44
2022/10/28 03:32:42;;;;;;;16.63;8.90;;;14.70;99.90;;;;;;5114322;28;20440;-44
2022/10/28 03:35:09;;;;;;;11.70;8.53;;;14.60;99.90;;;;;;5114177;28;20436;-44
2022/10/28 03:37:37;;;;;;;11.63;8.63;;;14.70;99.90;;;;;;5114982;28;20458;-44
2022/10/28 03:40:06;;;;;;;11.47;8.57;;;14.90;99.90;;;;;;5114307;28;20793;-45
2022/10/28 03:42:33;;;;;;;9.33;8.13;;;14.60;99.90;;;;;;5115157;28;20439;-46
2022/10/28 03:44:59;;;;;;;15.73;10.10;;;14.70;99.90;;;;;;5114431;28;20855;-44
2022/10/28 03:47:26;;;;;;;12.17;8.87;;;14.50;99.90;;;;;;5114147;28;20463;-44
2022/10/28 03:49:53;;;;;;;12.37;9.80;;;14.60;99.90;;;;;;5114328;28;20435;-44
2022/10/28 03:52:19;;;;;;;18.27;10.00;;;14.60;99.90;;;;;;5114071;28;20987;-44
2022/10/28 03:54:47;;;;;;;11.40;8.53;;;14.50;99.90;;;;;;5114209;28;20432;-43
2022/10/28 03:57:14;;;;;;;13.10;8.57;;;14.50;99.90;;;;;;5113924;28;20462;-44
2022/10/28 03:59:41;;;;;;;11.73;9.10;;;14.40;99.90;;;;;;5113240;28;20424;-45
2022/10/28 04:02:07;;;;;;;15.13;9.87;;;14.60;99.90;;;;;;5114106;28;20403;-44
2022/10/28 04:04:34;;;;;;;15.00;9.40;;;14.80;99.90;;;;;;5114538;28;20775;-44
2022/10/28 04:07:00;;;;;;;18.50;10.20;;;14.40;99.90;;;;;;5113588;28;20458;-44
2022/10/28 04:09:27;;;;;;;13.73;9.40;;;14.50;99.90;;;;;;5113403;28;20970;-44
2022/10/28 04:11:55;;;;;;;13.00;9.40;;;14.40;99.90;;;;;;5113568;28;20571;-48
2022/10/28 04:14:21;;;;;;;11.87;9.30;;;14.40;99.90;;;;;;5113741;28;20437;-44
2022/10/28 04:16:48;;;;;;;12.37;9.20;;;14.30;99.90;;;;;;5113356;28;20448;-45
2022/10/28 04:19:15;;;;;;;12.33;9.17;;;14.60;99.90;;;;;;5113161;28;20436;-44
2022/10/28 04:21:41;;;;;;;11.80;9.83;;;14.50;99.90;;;;;;5113597;28;20531;-44
2022/10/28 04:24:08;;;;;;;14.10;10.50;;;14.40;99.90;;;;;;5113450;28;20856;-45
2022/10/28 04:29:08;;;;;;;17.60;9.83;;;14.40;99.90;;;;;;5070733;28;20427;-49
2022/10/28 04:31:34;;;;;;;13.23;9.90;;;14.10;99.90;;;;;;5072679;28;20458;-48
2022/10/28 04:34:01;;;;;;;17.90;10.80;;;14.30;99.90;;;;;;5072945;28;20789;-48
2022/10/28 04:36:28;;;;;;;10.47;9.37;;;14.30;99.90;;;;;;5072633;28;20809;-48
2022/10/28 04:38:54;;;;;;;12.53;9.30;;;14.10;99.90;;;;;;5072146;28;20431;-48
2022/10/28 04:41:21;;;;;;;19.10;11.10;;;14.40;99.90;;;;;;5072432;28;20770;-48
2022/10/28 04:43:48;;;;;;;15.07;11.37;;;14.20;99.90;;;;;;5072527;28;20949;-48
2022/10/28 04:46:16;;;;;;;17.83;11.03;;;14.10;99.90;;;;;;5072799;28;20438;-48
2022/10/28 04:48:42;;;;;;;11.20;9.70;;;13.70;99.90;;;;;;5070990;28;21028;-48
2022/10/28 04:51:09;;;;;;;15.00;11.27;;;14.30;99.90;;;;;;5072592;28;20833;-48
2022/10/28 04:53:35;;;;;;;20.00;10.83;;;13.80;99.90;;;;;;5073343;28;20434;-47
2022/10/28 04:56:02;;;;;;;13.00;11.03;;;14.10;99.90;;;;;;5072485;28;20803;-47
2022/10/28 04:58:29;;;;;;;18.30;10.63;;;13.60;99.90;;;;;;5072183;28;20454;-48
2022/10/28 05:00:55;;;;;;;11.87;10.13;;;13.50;99.90;;;;;;5072625;28;20430;-48
2022/10/28 05:03:23;;;;;;;20.40;10.83;;;14.00;99.90;;;;;;5071134;28;20445;-47
2022/10/28 05:05:50;;;;;;;17.30;10.70;;;14.10;99.90;;;;;;5072323;28;20436;-46
2022/10/28 05:08:16;;;;;;;13.33;11.50;;;14.20;99.90;;;;;;5072502;28;20796;-47
2022/10/28 05:10:47;;;;;;;15.60;10.03;;;14.20;99.90;;;;;;5071606;28;20473;-48
2022/10/28 05:13:14;;;;;;;16.90;10.83;;;14.00;99.90;;;;;;5072515;28;20516;-48
2022/10/28 05:15:40;;;;;;;17.53;11.97;;;13.90;99.90;;;;;;5073090;28;20430;-47
2022/10/28 05:18:07;;;;;;;14.70;10.87;;;13.50;99.90;;;;;;5072053;28;20824;-48
2022/10/28 05:20:35;;;;;;;15.33;10.97;;;13.80;99.90;;;;;;5071170;28;20492;-48
2022/10/28 05:23:01;;;;;;;15.53;11.90;;;13.80;99.90;;;;;;5071852;28;20440;-49
2022/10/28 05:25:28;;;;;;;14.13;12.23;;;14.10;99.90;;;;;;5072054;28;20925;-48
2022/10/28 05:27:59;;;;;;;13.17;10.80;;;14.10;99.90;;;;;;5070389;28;21049;-48
2022/10/28 05:30:26;;;;;;;13.20;11.80;;;14.00;99.90;;;;;;5071499;28;20440;-48
2022/10/28 05:32:59;;;;;;;12.43;11.03;;;13.70;99.90;;;;;;5071822;28;20442;-47
2022/10/28 05:35:25;;;;;;;18.40;9.37;;;14.50;99.90;;;;;;5071834;28;20414;-47
2022/10/28 05:37:54;;;;;;;15.80;9.93;;;13.80;99.90;;;;;;5071809;28;20452;-47
2022/10/28 05:40:20;;;;;;;11.80;10.50;;;13.90;99.90;;;;;;5071298;28;20887;-47
2022/10/28 05:42:47;;;;;;;15.83;10.37;;;14.10;99.90;;;;;;5071657;28;20431;-47
2022/10/28 05:45:14;;;;;;;14.93;9.90;;;14.10;99.90;;;;;;5071626;28;20430;-48
2022/10/28 05:47:43;;;;;;;15.50;11.27;;;14.30;99.90;;;;;;5071390;28;20451;-49
2022/10/28 05:50:10;;;;;;;18.97;11.80;;;14.20;99.90;;;;;;5070956;28;20429;-48
2022/10/28 05:52:37;;;;;;;19.53;12.67;;;14.20;99.90;;;;;;5071904;28;20486;-47
2022/10/28 05:55:06;;;;;;;14.00;10.40;;;14.20;99.90;;;;;;5071625;28;20435;-48
2022/10/28 05:57:34;;;;;;;12.73;10.60;;;14.30;99.90;;;;;;5071318;28;20453;-48
2022/10/28 06:00:01;;;;;;;13.10;9.47;;;14.30;99.90;;;;;;5069874;28;20510;-48
2022/10/28 06:02:27;;;;;;;13.23;10.60;;;14.40;99.90;;;;;;5071367;28;20428;-48
2022/10/28 06:04:54;;;;;;;13.30;9.93;;;14.30;99.90;;;;;;5071554;28;20416;-48
2022/10/28 06:07:20;;;;;;;12.43;9.70;;;14.60;99.90;;;;;;5071350;28;20454;-50
2022/10/28 06:09:49;;;;;;;12.83;8.77;;;14.50;99.90;;;;;;5070982;28;20435;-48
2022/10/28 06:12:17;;;;;;;10.47;8.93;;;14.60;99.90;;;;;;5071391;28;20871;-48
2022/10/28 06:14:44;;;;;;;16.47;12.00;;;14.40;99.90;;;;;;5071416;28;20425;-48
2022/10/28 06:17:10;;;;;;;16.63;9.40;;;14.30;99.90;;;;;;5071214;28;20455;-48
2022/10/28 06:19:37;;;;;;;14.13;9.80;;;14.20;99.90;;;;;;5070874;28;20426;-48
2022/10/28 06:22:03;;;;;;;11.93;9.13;;;14.30;99.90;;;;;;5071087;28;20442;-48
2022/10/28 06:24:30;;;;;;;13.20;9.80;;;14.80;99.90;;;;;;5071081;28;20809;-48
2022/10/28 06:26:57;;;;;;;12.57;10.00;;;14.80;99.90;;;;;;5070821;28;20432;-48
2022/10/28 06:29:25;;;;;;;11.60;9.40;;;15.10;99.90;;;;;;5070520;28;20513;-47
2022/10/28 06:31:51;;;;;;;12.50;10.20;;;14.70;99.90;;;;;;5074273;28;20801;-48
2022/10/28 06:34:18;;;;;;;14.50;10.33;;;14.60;99.90;;;;;;5075396;28;20429;-48
2022/10/28 06:36:44;;;;;;;18.07;10.00;;;14.60;99.90;;;;;;5074627;28;20425;-48
2022/10/28 06:39:11;;;;;;;15.10;9.73;;;14.80;99.90;;;;;;5074342;28;20788;-47
2022/10/28 06:41:37;;;;;;;13.03;10.10;;;14.80;99.90;;;;;;5074518;28;20437;-48
2022/10/28 06:44:04;;;;;;;21.30;11.20;;;14.60;99.90;;;;;;5074644;28;21030;-47
2022/10/28 06:46:33;;;;;;;18.30;9.60;;;14.60;99.90;;;;;;5074558;28;20456;-47
2022/10/28 06:49:01;;;;;;;16.33;9.20;;;14.70;99.90;;;;;;5074229;28;20849;-47
2022/10/28 06:51:29;;;;;;;11.00;9.33;;;14.70;99.90;;;;;;5074574;28;20496;-48
2022/10/28 06:53:56;;;;;;;11.00;8.43;;;14.50;99.90;;;;;;5074112;28;20433;-48
2022/10/28 06:56:22;;;;;;;9.97;8.77;;;14.60;99.90;;;;;;5074137;28;20430;-48
2022/10/28 06:58:50;;;;;;;14.63;10.50;;;14.90;99.90;;;;;;5073124;28;20957;-48
2022/10/28 07:01:17;;;;;;;15.00;9.50;;;14.80;99.90;;;;;;5074327;28;20914;-48
2022/10/28 07:03:45;;;;;;;12.17;9.30;;;14.90;99.90;;;;;;5074358;28;20415;-47
2022/10/28 07:06:12;;;;;;;16.50;9.70;;;14.70;99.90;;;;;;5073954;28;20785;-48
2022/10/28 07:08:38;;;;;;;13.00;9.20;;;15.20;99.90;;;;;;5073574;28;20981;-48
2022/10/28 07:11:05;;;;;;;12.30;8.70;;;14.90;99.90;;;;;;5074040;28;20429;-48
2022/10/28 07:13:32;;;;;;;11.07;8.97;;;15.10;99.90;;;;;;5073801;28;20457;-49
2022/10/28 07:16:00;;;;;;;10.93;8.13;;;14.60;99.90;;;;;;5073902;28;20437;-47
2022/10/28 07:18:28;;;;;;;14.10;9.00;;;15.10;99.90;;;;;;5073156;28;20436;-47
2022/10/28 07:20:59;;;;;;;18.00;8.67;;;15.00;99.90;;;;;;5073795;28;20532;-47
2022/10/28 07:23:26;;;;;;;13.57;9.70;;;14.40;99.90;;;;;;5073860;28;20450;-47
2022/10/28 07:25:54;;;;;;;12.30;8.27;;;15.10;99.90;;;;;;5073560;28;20822;-49
2022/10/28 07:28:21;;;;;;;16.90;9.00;;;15.10;99.90;;;;;;5073402;28;20849;-49
2022/10/28 07:30:48;;;;;;;11.80;9.00;;;15.20;99.90;;;;;;5073608;28;20931;-47
2022/10/28 07:33:14;;;;;;;14.23;7.73;;;15.30;99.90;;;;;;5072058;28;20478;-48
2022/10/28 07:35:43;;;;;;;14.93;7.77;;;15.40;99.90;;;;;;5073490;28;20773;-48
2022/10/28 07:38:11;;;;;;;16.53;8.77;;;15.60;99.90;;;;;;5073544;28;20466;-48
2022/10/28 07:40:38;;;;;;;12.77;7.97;;;15.60;99.90;;;;;;5071520;28;20449;-48
2022/10/28 07:43:04;;;;;;;13.70;8.67;;;15.40;99.90;;;;;;5072669;28;20448;-48
2022/10/28 07:45:31;;;;;;;11.67;7.97;;;15.50;99.90;;;;;;5073217;28;20566;-48
2022/10/28 07:47:58;;;;;;;12.37;7.93;;;15.70;99.90;;;;;;5073278;28;20951;-48
2022/10/28 07:50:24;;;;;;;12.57;8.03;;;15.50;99.90;;;;;;5073140;28;20568;-48
2022/10/28 07:52:51;;;;;;;16.50;8.50;;;15.40;99.90;;;;;;5073132;28;20470;-49
2022/10/28 07:55:20;;;;;;;10.90;8.03;;;15.90;99.90;;;;;;5073342;28;20434;-48
2022/10/28 07:57:47;;;;;;;10.50;8.60;;;16.00;99.90;;;;;;5071840;28;20497;-48
2022/10/28 08:00:14;;;;;;;10.67;7.10;;;16.10;99.90;;;;;;5072576;28;20449;-48
2022/10/28 08:02:41;;;;;;;8.70;7.23;;;16.00;99.90;;;;;;5073252;28;20435;-48
2022/10/28 08:05:08;;;;;;;13.50;8.10;;;16.30;99.90;;;;;;5073041;28;20488;-48
2022/10/28 08:07:35;;;;;;;12.60;7.93;;;16.20;99.90;;;;;;5072882;28;20451;-47
2022/10/28 08:10:01;;;;;;;15.63;8.00;;;15.90;99.90;;;;;;5072478;28;20953;-48
2022/10/28 08:12:29;;;;;;;13.00;7.70;;;16.50;99.90;;;;;;5073126;28;20473;-47
2022/10/28 08:14:56;;;;;;;12.33;7.83;;;16.50;99.90;;;;;;5072826;28;20431;-47
2022/10/28 08:17:22;;;;;;;10.13;8.03;;;16.20;99.90;;;;;;5072589;28;20461;-48
2022/10/28 08:19:49;;;;;;;11.60;7.80;;;16.70;99.90;;;;;;5072268;28;20528;-47
2022/10/28 08:22:16;;;;;;;13.50;8.20;;;17.00;99.90;;;;;;5072424;28;20436;-49
2022/10/28 08:24:42;;;;;;;12.67;7.17;;;16.90;99.90;;;;;;5072501;28;20439;-47
2022/10/28 08:27:09;;;;;;;13.80;8.60;;;16.50;99.90;;;;;;5072347;28;20805;-49
2022/10/28 08:29:37;;;;;;;11.63;7.40;;;16.90;99.90;;;;;;5071947;28;20968;-48
2022/10/28 08:32:03;;;;;;;11.47;6.93;;;17.00;99.90;;;;;;5071627;28;20438;-48
2022/10/28 08:34:30;;;;;;;11.83;7.63;;;17.00;99.90;;;;;;5072353;28;20776;-49
2022/10/28 08:36:57;;;;;;;13.00;6.93;;;17.10;99.90;;;;;;5071009;28;20478;-48
2022/10/28 08:39:24;;;;;;;9.63;7.07;;;17.30;99.90;;;;;;5071962;28;20486;-47
2022/10/28 08:41:58;;;;;;;10.03;6.80;;;17.20;99.90;;;;;;5070860;28;20539;-48
2022/10/28 08:44:50;;;;;;;8.50;6.33;;;17.40;99.90;;;;;;5072433;28;20463;-48
2022/10/28 08:47:33;;;;;;;7.37;5.97;;;17.40;99.90;;;;;;5072114;28;20466;-48
2022/10/28 08:50:03;;;;;;;8.87;6.53;;;17.30;99.90;;;;;;5071797;28;20436;-47
2022/10/28 08:52:34;;;;;;;12.80;6.77;;;17.30;99.90;;;;;;5071984;28;20477;-47
2022/10/28 08:55:04;;;;;;;16.70;6.37;;;17.20;99.90;;;;;;5071701;28;20432;-48
2022/10/28 08:57:38;;;;;;;11.33;6.37;;;17.10;99.90;;;;;;5071823;28;20803;-47
2022/10/28 09:00:07;;;;;;;18.40;8.77;;;17.10;99.90;;;;;;5071736;28;20462;-48
2022/10/28 09:02:48;;;;;;;10.17;6.30;;;17.20;99.90;;;;;;5071626;28;20518;-47
2022/10/28 09:05:21;;;;;;;11.60;7.20;;;17.20;99.90;;;;;;5071825;28;20428;-48
2022/10/28 09:07:47;;;;;;;14.00;7.17;;;17.30;99.90;;;;;;5071583;28;20581;-47
2022/10/28 09:10:16;;;;;;;9.67;6.80;;;17.30;99.90;;;;;;5071222;28;20815;-47
2022/10/28 09:12:52;;;;;;;14.53;7.93;;;17.40;99.90;;;;;;5071700;28;20493;-48
2022/10/28 09:15:28;;;;;;;10.60;6.30;;;17.50;99.90;;;;;;5071735;28;20454;-48
2022/10/28 09:17:59;;;;;;;11.23;6.93;;;17.50;99.90;;;;;;5070712;28;20477;-48
2022/10/28 09:20:39;;;;;;;8.33;5.63;;;17.60;99.90;;;;;;5070018;28;20952;-48
2022/10/28 09:23:15;;;;;;;8.83;6.30;;;17.30;99.90;;;;;;5071731;28;20854;-47
2022/10/28 09:25:48;;;;;;;9.70;6.53;;;17.70;99.90;;;;;;5053375;28;20436;-48
2022/10/28 09:28:31;;;;;;;8.57;6.07;;;17.60;99.90;;;;;;5071444;28;20501;-49
2022/10/28 09:31:04;;;;;;;15.00;6.47;;;17.60;99.90;;;;;;5071922;28;20437;-48
2022/10/28 09:33:56;;;;;;;14.07;7.13;;;17.70;99.90;;;;;;5070181;28;20484;-47
2022/10/28 09:36:27;;;;;;;17.47;6.80;;;17.70;99.90;;;;;;5071258;28;20441;-48
2022/10/28 09:38:58;;;;;;;9.70;5.73;;;17.80;99.90;;;;;;5071013;28;20929;-48
2022/10/28 09:41:30;;;;;;;11.93;6.77;;;17.70;99.90;;;;;;5071094;28;20429;-48
2022/10/28 09:44:04;;;;;;;13.10;5.73;;;17.80;99.90;;;;;;5071337;28;20433;-47
2022/10/28 09:46:32;;;;;;;9.60;5.70;;;17.80;99.90;;;;;;5071580;28;20431;-48
2022/10/28 09:49:04;;;;;;;8.67;6.13;;;18.00;99.90;;;;;;5071099;28;20444;-48
2022/10/28 09:51:42;;;;;;;8.37;5.53;;;17.80;99.90;;;;;;5070391;28;20433;-48
2022/10/28 09:54:10;;;;;;;6.07;5.00;;;17.80;99.90;;;;;;5071117;28;20490;-47
2022/10/28 09:56:38;;;;;;;14.80;7.30;;;17.70;99.90;;;;;;5070796;28;20964;-48
2022/10/28 09:59:05;;;;;;;9.07;5.90;;;18.00;99.90;;;;;;5070843;28;20472;-47
2022/10/28 10:01:34;;;;;;;10.23;5.73;;;18.00;99.90;;;;;;5069792;28;20456;-48
2022/10/28 10:04:06;;;;;;;9.70;6.87;;;18.10;99.90;;;;;;5071324;28;20558;-48
2022/10/28 10:06:36;;;;;;;11.67;5.73;;;18.30;99.90;;;;;;5073981;28;20423;-48
2022/10/28 10:09:04;;;;;;;10.50;5.90;;;18.50;99.90;;;;;;5074787;28;20436;-47
2022/10/28 10:11:36;;;;;;;12.80;6.37;;;18.10;99.90;;;;;;5075501;28;20783;-48
2022/10/28 10:14:06;;;;;;;12.13;6.50;;;18.40;99.90;;;;;;5074843;28;20480;-48
2022/10/28 10:16:40;;;;;;;12.40;5.50;;;18.70;99.90;;;;;;5074973;28;20444;-48
2022/10/28 10:19:10;;;;;;;11.10;5.97;;;18.10;99.90;;;;;;5074573;28;20425;-48
2022/10/28 10:21:42;;;;;;;11.63;6.10;;;18.50;99.90;;;;;;5075112;28;20425;-49
2022/10/28 10:24:23;;;;;;;16.70;6.97;;;18.40;99.90;;;;;;5075089;28;20429;-48
2022/10/28 10:26:51;;;;;;;10.13;5.93;;;18.70;99.90;;;;;;5081095;28;20449;-48
2022/10/28 10:29:17;;;;;;;14.87;5.77;;;18.70;99.90;;;;;;5088913;22;20504;-45
2022/10/28 10:31:46;;;;;;;13.50;5.97;;;18.90;99.90;;;;;;5074507;28;20776;-45
2022/10/28 10:34:23;;;;;;;8.80;5.80;;;18.70;99.90;;;;;;5072581;28;20482;-44
2022/10/28 10:36:51;;;;;;;15.80;6.37;;;18.80;99.90;;;;;;5072929;28;20525;-45
2022/10/28 10:39:25;;;;;;;9.83;4.60;;;18.90;99.90;;;;;;5073824;28;20457;-46
2022/10/28 10:41:54;;;;;;;9.63;5.40;;;18.50;99.90;;;;;;5074936;28;20496;-46
2022/10/28 10:44:34;;;;;;;13.63;5.20;;;18.90;99.90;;;;;;5074190;28;20483;-46
2022/10/28 10:47:18;;;;;;;7.43;4.20;;;18.90;99.90;;;;;;5073865;28;20430;-47
2022/10/28 10:49:46;;;;;;;7.47;4.73;;;19.10;99.90;;;;;;5073281;28;20430;-44
2022/10/28 10:52:19;;;;;;;6.73;4.63;;;19.20;99.90;;;;;;5073700;28;20430;-44
2022/10/28 10:54:57;;;;;;;9.40;4.30;;;19.20;99.90;;;;;;5074038;28;20537;-45
2022/10/28 10:57:25;;;;;;;9.63;4.63;;;19.20;99.90;;;;;;5074627;28;20429;-46
2022/10/28 10:59:54;;;;;;;10.93;4.50;;;19.20;99.90;;;;;;5073837;28;20416;-45
2022/10/28 11:02:24;;;;;;;8.30;4.90;;;19.30;99.90;;;;;;5074475;28;20809;-45
2022/10/28 11:04:55;;;;;;;7.90;4.47;;;18.80;99.90;;;;;;5074911;28;20533;-45
2022/10/28 11:07:21;;;;;;;14.30;5.33;;;19.30;99.90;;;;;;5075108;28;20452;-45
2022/10/28 11:09:49;;;;;;;8.57;4.80;;;19.60;99.90;;;;;;5074101;28;20430;-45
2022/10/28 11:12:25;;;;;;;17.50;5.10;;;19.50;99.90;;;;;;5074878;28;20882;-46
2022/10/28 11:14:57;;;;;;;10.00;5.60;;;19.50;99.90;;;;;;5075227;28;20469;-45
2022/10/28 11:17:26;;;;;;;10.03;4.67;;;19.50;99.90;;;;;;5073319;28;20421;-44
2022/10/28 11:19:57;;;;;;;10.53;4.70;;;19.50;99.90;;;;;;5073669;28;20934;-45
2022/10/28 11:22:38;;;;;;;10.80;5.10;;;19.60;99.90;;;;;;5073542;28;20458;-45
2022/10/28 11:25:27;;;;;;;15.30;4.90;;;19.60;99.90;;;;;;5073567;28;20437;-46
2022/10/28 11:28:02;;;;;;;10.50;5.40;;;19.70;99.90;;;;;;5073815;28;20838;-45
2022/10/28 11:30:37;;;;;;;8.60;4.77;;;19.70;99.90;;;;;;5072966;28;20533;-46
2022/10/28 11:33:11;;;;;;;15.80;5.60;;;19.90;99.90;;;;;;5073335;28;20834;-48
2022/10/28 11:35:56;;;;;;;16.90;4.80;;;19.60;99.90;;;;;;5065814;28;20448;-44
2022/10/28 11:38:38;;;;;;;9.97;5.13;;;19.90;99.90;;;;;;5073676;28;20461;-48
2022/10/28 11:41:18;;;;;;;9.03;4.70;;;19.80;99.90;;;;;;5073414;28;20431;-48
2022/10/28 11:43:50;;;;;;;11.03;4.60;;;19.90;99.90;;;;;;5072802;28;20435;-46
2022/10/28 11:46:36;;;;;;;10.27;4.83;;;19.90;99.90;;;;;;5073030;28;20432;-48
2022/10/28 11:49:34;;;;;;;8.90;4.47;;;20.00;99.90;;;;;;5073004;28;20456;-46
2022/10/28 11:52:14;;;;;;;9.97;4.33;;;20.00;99.90;;;;;;5073599;28;20504;-45
2022/10/28 11:54:52;;;;;;;12.80;5.23;;;20.00;99.90;;;;;;5071004;28;20499;-45
2022/10/28 11:57:26;;;;;;;13.73;5.13;;;20.10;99.90;;;;;;5073063;28;20428;-47
2022/10/28 12:00:14;;;;;;;20.73;18.57;;;19.60;99.90;;;;;;5072972;28;20414;-48
2022/10/28 12:03:00;;;;;;;24.17;14.10;;;20.10;99.90;;;;;;5055717;28;20949;-45
2022/10/28 12:05:32;;;;;;;14.03;5.87;;;20.10;99.90;;;;;;5073140;28;20434;-45
2022/10/28 12:08:16;;;;;;;11.13;6.73;;;19.90;99.90;;;;;;5072652;28;20824;-48
2022/10/28 12:10:58;;;;;;;8.43;4.70;;;20.20;99.90;;;;;;5072650;28;20756;-45
2022/10/28 12:13:32;;;;;;;16.70;6.90;;;20.50;99.90;;;;;;5072187;28;20479;-47
2022/10/28 12:16:07;;;;;;;18.43;7.07;;;20.30;99.90;;;;;;5072452;28;20451;-47
2022/10/28 12:18:40;;;;;;;11.07;5.43;;;20.30;99.90;;;;;;5071700;28;20983;-45
2022/10/28 12:21:13;;;;;;;11.87;5.00;;;20.50;99.90;;;;;;5072191;28;20441;-45
2022/10/28 12:23:43;;;;;;;9.47;5.00;;;20.60;99.90;;;;;;5072285;28;20532;-45
2022/10/28 12:26:13;;;;;;;10.37;4.43;;;20.80;99.90;;;;;;5072428;28;20452;-46
2022/10/28 12:28:43;;;;;;;11.30;4.63;;;20.80;99.90;;;;;;5071545;28;20837;-46
2022/10/28 12:31:21;;;;;;;12.87;4.80;;;21.00;99.90;;;;;;5072012;28;20436;-48
2022/10/28 12:33:51;;;;;;;17.80;5.20;;;20.90;99.90;;;;;;5071981;28;20472;-44
2022/10/28 12:36:27;;;;;;;12.43;4.50;;;21.00;99.90;;;;;;5072188;28;21086;-46
2022/10/28 12:39:00;;;;;;;11.03;4.83;;;20.90;99.90;;;;;;5071850;28;20810;-45
2022/10/28 12:41:44;;;;;;;19.83;5.60;;;20.90;99.90;;;;;;5072497;28;20443;-45
2022/10/28 12:44:14;;;;;;;8.43;4.80;;;20.80;99.90;;;;;;5071654;28;20837;-45
2022/10/28 12:46:49;;;;;;;10.27;5.80;;;21.00;99.90;;;;;;5071635;28;20448;-45
2022/10/28 12:49:22;;;;;;;10.33;5.27;;;20.80;99.90;;;;;;5072197;28;20824;-45
2022/10/28 12:51:49;;;;;;;11.57;4.70;;;20.90;99.90;;;;;;5072562;28;20438;-46
2022/10/28 12:54:25;;;;;;;11.40;5.20;;;20.90;99.90;;;;;;5071642;28;20488;-46
2022/10/28 12:56:59;;;;;;;12.20;4.90;;;21.00;99.90;;;;;;5071647;28;20780;-46